Los Angeles, CA (90053)

2:47 AM PDT on September 15, 2014 (GMT -0700)
Downtown Los Angeles | Change Station
CLOSE
Current Station
Personal Weather Station
Location: Los Angeles, CA
Elevation: 343 ft
Nearby Weather Stations

Elev 343 ft 34.06 °N, 118.26 °W | Updated 1 minute ago

Clear
Clear
79.9 °F
Feels Like 82 °F
N
0.0
Wind Variable Wind from South
Gusts 0.0 mph

Today
High -- | Low -- °F
--% Chance of Precip.
Yesterday
High -- | Low -- °F
Precip. -- in
6:36 AM 6:59 PM
Waning Gibbous, 57% visible
Pressure 29.75 in
Visibility 10.0 miles
Clouds Clear
Heat Index 82 °F
Dew Point 65 °F
Humidity 60%
Rainfall 0.00 in
Snow Depth 0 in , 0 in , 0 in
UV 0 out of 12
Pollen 7.00 out of 12
Ozone Good
PM2.5 Moderate
Flu Activity Not available.
METAR KCQT 150847Z AUTO 00000KT 10SM CLR 26/16 A2976 RMK AO2 SLP074 T02560161 51008

More Conditions Fewer Conditions

Pressure 29.75 in
Visibility 10.0 miles
Clouds Clear
Heat Index 82 °F
Dew Point 65 °F
Humidity 60%
Rainfall 0.00 in
Snow Depth 0 in , 0 in , 0 in
UV 0 out of 12
Pollen 7.00 out of 12
Ozone Good
PM2.5 Moderate
Flu Activity Not available.
METAR KCQT 150847Z AUTO 00000KT 10SM CLR 26/16 A2976 RMK AO2 SLP074 T02560161 51008

More Conditions Fewer Conditions

10-Day Weather Forecast

Almanac

Astronomy

Sep. 15, 2014 Rise Set
Actual Time 6:36 AM PDT 6:59 PM PDT
Civil Twilight 6:11 AM PDT 7:24 PM PDT
Nautical Twilight 5:41 AM PDT 7:53 PM PDT
Astronomical Twilight 5:11 AM PDT 8:23 PM PDT
Moon No Moon Rise 1:24 PM PDT
Length of Visible Light 13h 13m
Length of Day
12h 23m
Tomorrow will be 2m 5s shorter.
Waning Gibbous, 57% of the Moon is Illuminated
Today
Waning Gibbous
Sep 15
Last Quarter
Sep 24
New
Oct 1
First Quarter
Oct 8
Full

Today's Extremes

State Highs State Lows

Community

WunderPhotos

Upload Photos

1,753,427 photos uploaded!

Nearby

Air Quality

  Air Quality AQ Index Pollutant
Yesterday Unhealthy for Sensitive Groups
OZONE
Yesterday Good
PM10
Current Moderate
PM2.5
Current Good
OZONE
Monday Moderate
OZONE
Monday Good
PM10
Monday Good
CO
Monday Good
NO2

Snow Depth

Station Depth Elevation
Fallen Leaf 0 in 6300 ft
Forestdale Creek 0 in 8029 ft
Rubicon #2 0 in 7500 ft
Tahoe City Cross 0 in 6750 ft
Summit Meadow 0 in 9122 ft

Earthquake Activity

City Distance Mag. Time & Date
Inyokern, California 129 miles 3.2 5:56 PM PDT
2014-09-14
San Jacinto, California 75 miles 3.1 3:16 PM PDT
2014-09-14
Ventura, California 62 miles 2.5 10:56 AM PDT
2014-09-12
Ridgecrest, California 96 miles 3.3 5:20 AM PDT
2014-09-12
Minimum magnitude displayed is 2.5.

Coastal Water Temperatures

Place Temperature
Santa Monica Pier 71.1 °F
Los Angeles, CA 70.0 °F
La Jolla, CA 70.0 °F

Nearby Weather Stations